EGEO/OBN METAR and TAF weather

Enter ICAO airport designator
Station Type Date Time Source
EGEO METAR 2018/07/20 14:20 UTC NOAA

EGEO 201420Z 28008KT 9999 FEW006 SCT020 BKN048 16/15 Q1011


Station Type Date Time Source
EGEO Decoded METAR 2018/07/20 14:20 UTC NOAA

Station name not available
Jul 20, 2018 - 10:20 AM EDT / 2018.07.20 1420 UTC
Wind: from the W (280 degrees) at 9 MPH (8 KT):0
Visibility: greater than 7 mile(s):0
Sky conditions: mostly cloudy
Temperature: 60 F (16 C)
Dew Point: 59 F (15 C)
Relative Humidity: 93%
Pressure (altimeter): 29.85 in. Hg (1011 hPa)
ob: EGEO 201420Z 28008KT 9999 FEW006 SCT020 BKN048 16/15 Q1011
cycle: 14

Station Type Date Time Source
EGEO TAF UTC NOAA

Error!


Example: see airport list